sensor_id;sensor_type;location;lat;lon;timestamp;pressure;altitude;pressure_sealevel;temperature;humidity
11971;BME280;6045;42.682;23.294;2023-06-14T00:02:00;94376.88;;;18.73;96.73
11971;BME280;6045;42.682;23.294;2023-06-14T00:04:27;94375.78;;;18.74;96.31
11971;BME280;6045;42.682;23.294;2023-06-14T00:06:55;94371.75;;;18.72;96.32
11971;BME280;6045;42.682;23.294;2023-06-14T00:09:22;94374.97;;;18.74;96.88
11971;BME280;6045;42.682;23.294;2023-06-14T00:11:50;94374.16;;;18.73;96.62
11971;BME280;6045;42.682;23.294;2023-06-14T00:14:17;94370.38;;;18.74;96.71
11971;BME280;6045;42.682;23.294;2023-06-14T00:16:44;94366.84;;;18.74;96.12
11971;BME280;6045;42.682;23.294;2023-06-14T00:19:11;94370.38;;;18.74;95.92
11971;BME280;6045;42.682;23.294;2023-06-14T00:21:38;94363.31;;;18.73;96.09
11971;BME280;6045;42.682;23.294;2023-06-14T00:24:05;94368.75;;;18.73;96.22
11971;BME280;6045;42.682;23.294;2023-06-14T00:26:32;94364.94;;;18.74;96.14
11971;BME280;6045;42.682;23.294;2023-06-14T00:29:00;94360.56;;;18.78;95.93
11971;BME280;6045;42.682;23.294;2023-06-14T00:31:27;94355.97;;;18.79;95.83
11971;BME280;6045;42.682;23.294;2023-06-14T00:33:54;94360.28;;;18.80;95.81
11971;BME280;6045;42.682;23.294;2023-06-14T00:36:20;94363.78;;;18.80;95.79
11971;BME280;6045;42.682;23.294;2023-06-14T00:38:47;94360.00;;;18.81;95.51
11971;BME280;6045;42.682;23.294;2023-06-14T00:41:14;94363.22;;;18.83;95.77
11971;BME280;6045;42.682;23.294;2023-06-14T00:43:41;94354.28;;;18.83;96.21
11971;BME280;6045;42.682;23.294;2023-06-14T00:46:09;94361.59;;;18.82;95.83
11971;BME280;6045;42.682;23.294;2023-06-14T00:48:37;94354.06;;;18.79;95.77
11971;BME280;6045;42.682;23.294;2023-06-14T00:51:05;94349.72;;;18.78;96.17
11971;BME280;6045;42.682;23.294;2023-06-14T00:53:32;94349.50;;;18.75;96.52
11971;BME280;6045;42.682;23.294;2023-06-14T00:56:01;94351.41;;;18.74;96.57
11971;BME280;6045;42.682;23.294;2023-06-14T00:58:28;94348.94;;;18.78;95.89
11971;BME280;6045;42.682;23.294;2023-06-14T01:00:55;94348.47;;;18.71;96.18
11971;BME280;6045;42.682;23.294;2023-06-14T01:03:24;94349.50;;;18.75;96.23
11971;BME280;6045;42.682;23.294;2023-06-14T01:05:58;94349.22;;;18.76;96.03
11971;BME280;6045;42.682;23.294;2023-06-14T01:08:32;94346.50;;;18.76;96.17
11971;BME280;6045;42.682;23.294;2023-06-14T01:11:08;94350.31;;;18.75;96.51
11971;BME280;6045;42.682;23.294;2023-06-14T01:13:39;94355.19;;;18.73;96.20
11971;BME280;6045;42.682;23.294;2023-06-14T01:16:08;94346.78;;;18.75;96.43
11971;BME280;6045;42.682;23.294;2023-06-14T01:18:36;94350.59;;;18.74;96.34
11971;BME280;6045;42.682;23.294;2023-06-14T01:21:03;94344.88;;;18.75;96.26
11971;BME280;6045;42.682;23.294;2023-06-14T01:23:32;94345.41;;;18.77;96.16
11971;BME280;6045;42.682;23.294;2023-06-14T01:26:00;94346.47;;;18.81;95.97
11971;BME280;6045;42.682;23.294;2023-06-14T01:28:28;94347.53;;;18.80;95.59
11971;BME280;6045;42.682;23.294;2023-06-14T01:31:00;94348.66;;;18.79;95.88
11971;BME280;6045;42.682;23.294;2023-06-14T01:33:31;94344.88;;;18.75;96.39
11971;BME280;6045;42.682;23.294;2023-06-14T01:35:59;94345.41;;;18.77;95.92
11971;BME280;6045;42.682;23.294;2023-06-14T01:38:27;94342.19;;;18.75;96.29
11971;BME280;6045;42.682;23.294;2023-06-14T01:40:57;94340.59;;;18.74;96.46
11971;BME280;6045;42.682;23.294;2023-06-14T01:43:25;94340.63;;;18.69;96.27
11971;BME280;6045;42.682;23.294;2023-06-14T01:45:54;94344.94;;;18.70;96.88
11971;BME280;6045;42.682;23.294;2023-06-14T01:48:23;94345.53;;;18.67;96.92
11971;BME280;6045;42.682;23.294;2023-06-14T01:50:50;94346.03;;;18.69;96.46
11971;BME280;6045;42.682;23.294;2023-06-14T01:53:16;94346.03;;;18.69;96.27
11971;BME280;6045;42.682;23.294;2023-06-14T01:55:43;94352.88;;;18.62;96.46
11971;BME280;6045;42.682;23.294;2023-06-14T01:58:15;94352.03;;;18.66;96.67
11971;BME280;6045;42.682;23.294;2023-06-14T02:00:43;94357.44;;;18.66;96.79
11971;BME280;6045;42.682;23.294;2023-06-14T02:03:10;94361.25;;;18.65;96.88
11971;BME280;6045;42.682;23.294;2023-06-14T02:05:38;94363.19;;;18.60;97.11
11971;BME280;6045;42.682;23.294;2023-06-14T02:08:06;94368.34;;;18.56;97.10
11971;BME280;6045;42.682;23.294;2023-06-14T02:10:33;94365.94;;;18.55;97.11
11971;BME280;6045;42.682;23.294;2023-06-14T02:13:00;94367.78;;;18.59;97.33
11971;BME280;6045;42.682;23.294;2023-06-14T02:15:28;94371.63;;;18.58;97.21
11971;BME280;6045;42.682;23.294;2023-06-14T02:18:00;94369.69;;;18.59;96.54
11971;BME280;6045;42.682;23.294;2023-06-14T02:20:27;94375.16;;;18.54;96.58
11971;BME280;6045;42.682;23.294;2023-06-14T02:22:54;94374.88;;;18.55;96.09
11971;BME280;6045;42.682;23.294;2023-06-14T02:25:22;94378.97;;;18.53;96.46
11971;BME280;6045;42.682;23.294;2023-06-14T02:27:50;94378.66;;;18.54;96.48
11971;BME280;6045;42.682;23.294;2023-06-14T02:30:17;94382.19;;;18.55;96.41
11971;BME280;6045;42.682;23.294;2023-06-14T02:32:46;94380.84;;;18.52;96.68
11971;BME280;6045;42.682;23.294;2023-06-14T02:35:14;94377.06;;;18.53;96.60
11971;BME280;6045;42.682;23.294;2023-06-14T02:37:42;94373.00;;;18.56;96.39
11971;BME280;6045;42.682;23.294;2023-06-14T02:40:10;94371.69;;;18.48;96.51
11971;BME280;6045;42.682;23.294;2023-06-14T02:42:37;94376.81;;;18.50;96.38
11971;BME280;6045;42.682;23.294;2023-06-14T02:45:05;94377.94;;;18.49;96.85
11971;BME280;6045;42.682;23.294;2023-06-14T02:47:32;94373.56;;;18.53;96.31
11971;BME280;6045;42.682;23.294;2023-06-14T02:50:01;94367.38;;;18.47;96.67
11971;BME280;6045;42.682;23.294;2023-06-14T02:52:28;94371.19;;;18.46;96.43
11971;BME280;6045;42.682;23.294;2023-06-14T02:54:55;94375.22;;;18.43;96.33
11971;BME280;6045;42.682;23.294;2023-06-14T02:57:23;94372.22;;;18.45;96.46
11971;BME280;6045;42.682;23.294;2023-06-14T02:59:50;94382.03;;;18.41;96.15
11971;BME280;6045;42.682;23.294;2023-06-14T03:02:17;94374.50;;;18.33;96.54
11971;BME280;6045;42.682;23.294;2023-06-14T03:04:44;94381.00;;;18.32;96.66
11971;BME280;6045;42.682;23.294;2023-06-14T03:07:13;94386.94;;;18.34;96.61
11971;BME280;6045;42.682;23.294;2023-06-14T03:09:45;94382.56;;;18.38;96.25
11971;BME280;6045;42.682;23.294;2023-06-14T03:12:12;94388.25;;;18.41;95.64
11971;BME280;6045;42.682;23.294;2023-06-14T03:14:40;94392.84;;;18.41;95.88
11971;BME280;6045;42.682;23.294;2023-06-14T03:17:11;94390.41;;;18.39;95.62
11971;BME280;6045;42.682;23.294;2023-06-14T03:19:38;94391.56;;;18.67;100.00
11971;BME280;6045;42.682;23.294;2023-06-14T03:22:06;94399.72;;;18.91;100.00
11971;BME280;6045;42.682;23.294;2023-06-14T03:24:35;94396.09;;;19.00;100.00
11971;BME280;6045;42.682;23.294;2023-06-14T03:27:03;94399.75;;;19.15;100.00
11971;BME280;6045;42.682;23.294;2023-06-14T03:29:31;94395.16;;;19.34;98.89
11971;BME280;6045;42.682;23.294;2023-06-14T03:31:59;94393.31;;;19.53;96.25
11971;BME280;6045;42.682;23.294;2023-06-14T03:34:26;94406.31;;;19.74;94.57
11971;BME280;6045;42.682;23.294;2023-06-14T03:36:54;94402.97;;;19.83;92.08
11971;BME280;6045;42.682;23.294;2023-06-14T03:39:21;94408.53;;;19.91;91.32
11971;BME280;6045;42.682;23.294;2023-06-14T03:41:49;94402.69;;;20.03;90.71
11971;BME280;6045;42.682;23.294;2023-06-14T03:44:17;94400.91;;;20.12;90.41
11971;BME280;6045;42.682;23.294;2023-06-14T03:46:44;94398.34;;;20.20;89.34
11971;BME280;6045;42.682;23.294;2023-06-14T03:49:12;94405.03;;;20.28;88.74
11971;BME280;6045;42.682;23.294;2023-06-14T03:51:39;94398.22;;;20.30;88.24
11971;BME280;6045;42.682;23.294;2023-06-14T03:54:06;94407.31;;;20.39;87.73
11971;BME280;6045;42.682;23.294;2023-06-14T03:56:33;94406.50;;;20.71;89.14
11971;BME280;6045;42.682;23.294;2023-06-14T03:59:02;94407.34;;;20.85;87.38
11971;BME280;6045;42.682;23.294;2023-06-14T04:01:29;94414.69;;;20.85;86.41
11971;BME280;6045;42.682;23.294;2023-06-14T04:03:56;94418.69;;;21.06;86.00
11971;BME280;6045;42.682;23.294;2023-06-14T04:06:24;94414.88;;;21.34;84.87
11971;BME280;6045;42.682;23.294;2023-06-14T04:08:58;94419.03;;;21.59;82.53
11971;BME280;6045;42.682;23.294;2023-06-14T04:11:29;94405.91;;;21.74;81.59
11971;BME280;6045;42.682;23.294;2023-06-14T04:13:56;94417.00;;;21.92;80.87
11971;BME280;6045;42.682;23.294;2023-06-14T04:16:25;94405.16;;;22.10;79.65
11971;BME280;6045;42.682;23.294;2023-06-14T04:18:53;94408.16;;;22.22;78.66
11971;BME280;6045;42.682;23.294;2023-06-14T04:21:20;94408.31;;;22.03;76.44
11971;BME280;6045;42.682;23.294;2023-06-14T04:23:48;94409.72;;;22.01;77.38
11971;BME280;6045;42.682;23.294;2023-06-14T04:26:18;94409.25;;;21.99;77.88
11971;BME280;6045;42.682;23.294;2023-06-14T04:28:46;94408.75;;;21.97;74.33
11971;BME280;6045;42.682;23.294;2023-06-14T04:31:12;94420.16;;;21.85;76.44
11971;BME280;6045;42.682;23.294;2023-06-14T04:33:43;94415.81;;;21.57;75.52
11971;BME280;6045;42.682;23.294;2023-06-14T04:36:12;94411.97;;;21.44;77.03
11971;BME280;6045;42.682;23.294;2023-06-14T04:38:43;94418.22;;;21.58;77.91
11971;BME280;6045;42.682;23.294;2023-06-14T04:41:10;94412.88;;;21.80;77.10
11971;BME280;6045;42.682;23.294;2023-06-14T04:43:37;94407.66;;;21.84;77.06
11971;BME280;6045;42.682;23.294;2023-06-14T04:46:05;94417.94;;;21.87;75.78
11971;BME280;6045;42.682;23.294;2023-06-14T04:48:37;94418.44;;;21.62;73.76
11971;BME280;6045;42.682;23.294;2023-06-14T04:51:07;94420.81;;;21.36;75.12
11971;BME280;6045;42.682;23.294;2023-06-14T04:53:35;94420.81;;;21.36;77.24
11971;BME280;6045;42.682;23.294;2023-06-14T04:56:02;94422.47;;;21.37;77.96
11971;BME280;6045;42.682;23.294;2023-06-14T04:58:29;94423.84;;;21.35;77.62
11971;BME280;6045;42.682;23.294;2023-06-14T05:00:56;94426.47;;;21.26;77.99
11971;BME280;6045;42.682;23.294;2023-06-14T05:03:24;94421.44;;;21.20;77.98
11971;BME280;6045;42.682;23.294;2023-06-14T05:05:52;94432.81;;;21.22;79.35
11971;BME280;6045;42.682;23.294;2023-06-14T05:08:20;94432.41;;;21.28;79.46
11971;BME280;6045;42.682;23.294;2023-06-14T05:10:49;94433.16;;;21.34;79.16
11971;BME280;6045;42.682;23.294;2023-06-14T05:13:16;94435.88;;;21.34;79.23
11971;BME280;6045;42.682;23.294;2023-06-14T05:15:43;94442.72;;;21.45;78.97
11971;BME280;6045;42.682;23.294;2023-06-14T05:18:10;94433.31;;;21.51;78.87
11971;BME280;6045;42.682;23.294;2023-06-14T05:20:38;94433.75;;;21.44;78.78
11971;BME280;6045;42.682;23.294;2023-06-14T05:23:07;94432.63;;;21.32;79.13
11971;BME280;6045;42.682;23.294;2023-06-14T05:25:35;94442.47;;;21.14;78.36
11971;BME280;6045;42.682;23.294;2023-06-14T05:28:02;94458.91;;;21.04;78.89
11971;BME280;6045;42.682;23.294;2023-06-14T05:30:28;94460.78;;;20.90;79.88
11971;BME280;6045;42.682;23.294;2023-06-14T05:32:56;94459.78;;;20.86;80.83
11971;BME280;6045;42.682;23.294;2023-06-14T05:35:22;94453.22;;;20.87;81.32
11971;BME280;6045;42.682;23.294;2023-06-14T05:37:52;94453.78;;;20.89;81.50
11971;BME280;6045;42.682;23.294;2023-06-14T05:40:19;94461.72;;;20.99;81.96
11971;BME280;6045;42.682;23.294;2023-06-14T05:42:47;94465.31;;;21.13;81.47
11971;BME280;6045;42.682;23.294;2023-06-14T05:45:14;94459.69;;;21.23;80.33
11971;BME280;6045;42.682;23.294;2023-06-14T05:47:41;94462.25;;;21.33;80.34
11971;BME280;6045;42.682;23.294;2023-06-14T05:50:09;94470.00;;;21.40;79.66
11971;BME280;6045;42.682;23.294;2023-06-14T05:52:36;94469.28;;;21.34;80.25
11971;BME280;6045;42.682;23.294;2023-06-14T05:55:04;94463.66;;;21.31;81.27
11971;BME280;6045;42.682;23.294;2023-06-14T05:57:31;94465.56;;;21.30;81.97
11971;BME280;6045;42.682;23.294;2023-06-14T05:59:59;94465.06;;;21.28;81.20
11971;BME280;6045;42.682;23.294;2023-06-14T06:02:26;94470.31;;;21.06;79.71
11971;BME280;6045;42.682;23.294;2023-06-14T06:04:53;94473.03;;;21.06;80.98
11971;BME280;6045;42.682;23.294;2023-06-14T06:07:21;94468.34;;;21.11;81.18
11971;BME280;6045;42.682;23.294;2023-06-14T06:09:48;94473.38;;;21.18;81.91
11971;BME280;6045;42.682;23.294;2023-06-14T06:12:15;94470.50;;;21.28;81.62
11971;BME280;6045;42.682;23.294;2023-06-14T06:14:42;94475.44;;;21.40;81.72
11971;BME280;6045;42.682;23.294;2023-06-14T06:34:06;94484.09;;;21.55;81.15
11971;BME280;6045;42.682;23.294;2023-06-14T06:36:32;94490.06;;;21.57;80.57
11971;BME280;6045;42.682;23.294;2023-06-14T06:38:59;94488.13;;;21.58;80.96
11971;BME280;6045;42.682;23.294;2023-06-14T06:41:26;94489.94;;;21.62;80.69
11971;BME280;6045;42.682;23.294;2023-06-14T06:43:53;94486.63;;;21.65;80.07
11971;BME280;6045;42.682;23.294;2023-06-14T06:46:20;94481.28;;;21.74;79.61
11971;BME280;6045;42.682;23.294;2023-06-14T06:48:46;94480.72;;;21.91;79.84
11971;BME280;6045;42.682;23.294;2023-06-14T06:51:15;94487.16;;;22.08;78.79
11971;BME280;6045;42.682;23.294;2023-06-14T06:53:42;94488.75;;;22.09;78.15
11971;BME280;6045;42.682;23.294;2023-06-14T06:56:09;94485.16;;;22.14;75.57
11971;BME280;6045;42.682;23.294;2023-06-14T06:58:39;94490.84;;;22.26;75.35
11971;BME280;6045;42.682;23.294;2023-06-14T07:01:08;94485.41;;;22.39;74.97
11971;BME280;6045;42.682;23.294;2023-06-14T07:03:35;94490.09;;;22.61;73.55
11971;BME280;6045;42.682;23.294;2023-06-14T07:06:02;94493.22;;;22.90;75.74
11971;BME280;6045;42.682;23.294;2023-06-14T07:08:31;94491.53;;;23.25;75.74
11971;BME280;6045;42.682;23.294;2023-06-14T07:10:57;94492.06;;;23.58;73.56
11971;BME280;6045;42.682;23.294;2023-06-14T07:13:24;94495.75;;;23.93;72.71
11971;BME280;6045;42.682;23.294;2023-06-14T07:15:54;94496.34;;;24.20;70.95
11971;BME280;6045;42.682;23.294;2023-06-14T07:18:21;94477.91;;;24.43;68.23
11971;BME280;6045;42.682;23.294;2023-06-14T07:20:48;94490.06;;;24.28;68.90
11971;BME280;6045;42.682;23.294;2023-06-14T07:23:15;94481.91;;;24.37;66.24
11971;BME280;6045;42.682;23.294;2023-06-14T07:25:43;94492.69;;;24.51;65.30
11971;BME280;6045;42.682;23.294;2023-06-14T07:28:10;94475.63;;;24.36;66.00
11971;BME280;6045;42.682;23.294;2023-06-14T07:30:37;94481.09;;;24.28;66.12
11971;BME280;6045;42.682;23.294;2023-06-14T07:33:03;94474.97;;;24.31;67.72
11971;BME280;6045;42.682;23.294;2023-06-14T07:35:31;94482.22;;;24.27;68.17
11971;BME280;6045;42.682;23.294;2023-06-14T07:37:58;94485.41;;;24.20;70.07
11971;BME280;6045;42.682;23.294;2023-06-14T07:40:24;94480.28;;;24.27;66.93
11971;BME280;6045;42.682;23.294;2023-06-14T07:42:52;94487.72;;;23.96;65.80
11971;BME280;6045;42.682;23.294;2023-06-14T07:45:20;94481.28;;;23.92;67.30
11971;BME280;6045;42.682;23.294;2023-06-14T07:47:47;94494.22;;;24.09;67.40
11971;BME280;6045;42.682;23.294;2023-06-14T07:50:13;94484.94;;;24.27;67.71
11971;BME280;6045;42.682;23.294;2023-06-14T07:52:40;94483.22;;;24.48;68.48
11971;BME280;6045;42.682;23.294;2023-06-14T07:55:07;94488.69;;;24.65;68.12
11971;BME280;6045;42.682;23.294;2023-06-14T07:57:34;94495.00;;;24.83;67.62
11971;BME280;6045;42.682;23.294;2023-06-14T08:00:04;94496.75;;;24.87;63.96
11971;BME280;6045;42.682;23.294;2023-06-14T08:02:32;94502.66;;;24.64;64.31
11971;BME280;6045;42.682;23.294;2023-06-14T08:04:59;94499.75;;;24.34;64.98
11971;BME280;6045;42.682;23.294;2023-06-14T08:07:26;94507.41;;;24.15;64.72
11971;BME280;6045;42.682;23.294;2023-06-14T08:09:53;94511.91;;;24.11;68.41
11971;BME280;6045;42.682;23.294;2023-06-14T08:12:20;94514.84;;;24.23;68.73
11971;BME280;6045;42.682;23.294;2023-06-14T08:14:47;94515.66;;;24.41;66.93
11971;BME280;6045;42.682;23.294;2023-06-14T08:17:15;94511.34;;;24.57;67.22
11971;BME280;6045;42.682;23.294;2023-06-14T08:19:42;94512.00;;;24.71;68.95
11971;BME280;6045;42.682;23.294;2023-06-14T08:22:09;94510.28;;;24.92;64.95
11971;BME280;6045;42.682;23.294;2023-06-14T08:24:37;94510.44;;;25.04;63.11
11971;BME280;6045;42.682;23.294;2023-06-14T08:27:05;94517.69;;;25.00;64.06
11971;BME280;6045;42.682;23.294;2023-06-14T08:29:32;94524.78;;;24.84;65.51
11971;BME280;6045;42.682;23.294;2023-06-14T08:31:59;94518.31;;;24.97;64.79
11971;BME280;6045;42.682;23.294;2023-06-14T08:34:27;94519.94;;;25.24;65.37
11971;BME280;6045;42.682;23.294;2023-06-14T08:36:54;94523.31;;;25.21;65.11
11971;BME280;6045;42.682;23.294;2023-06-14T08:39:20;94517.34;;;25.36;64.33
11971;BME280;6045;42.682;23.294;2023-06-14T08:41:47;94513.13;;;25.64;63.17
11971;BME280;6045;42.682;23.294;2023-06-14T08:44:15;94516.63;;;25.73;62.16
11971;BME280;6045;42.682;23.294;2023-06-14T08:46:42;94508.47;;;25.56;61.98
11971;BME280;6045;42.682;23.294;2023-06-14T08:49:11;94505.69;;;25.73;60.89
11971;BME280;6045;42.682;23.294;2023-06-14T08:51:40;94503.19;;;25.98;61.62
11971;BME280;6045;42.682;23.294;2023-06-14T08:54:07;94502.63;;;26.21;59.11
11971;BME280;6045;42.682;23.294;2023-06-14T08:56:38;94501.50;;;26.43;58.37
11971;BME280;6045;42.682;23.294;2023-06-14T08:59:07;94510.00;;;26.50;57.25
11971;BME280;6045;42.682;23.294;2023-06-14T09:01:36;94502.00;;;26.07;57.82
11971;BME280;6045;42.682;23.294;2023-06-14T09:04:03;94499.72;;;26.47;56.68
11971;BME280;6045;42.682;23.294;2023-06-14T09:06:31;94496.56;;;26.86;57.26
11971;BME280;6045;42.682;23.294;2023-06-14T09:08:59;94500.56;;;27.09;58.39
11971;BME280;6045;42.682;23.294;2023-06-14T09:11:27;94499.63;;;27.05;57.12
11971;BME280;6045;42.682;23.294;2023-06-14T09:13:54;94494.38;;;27.33;56.14
11971;BME280;6045;42.682;23.294;2023-06-14T09:16:21;94495.03;;;27.96;55.13
11971;BME280;6045;42.682;23.294;2023-06-14T09:18:48;94483.59;;;28.18;55.95
11971;BME280;6045;42.682;23.294;2023-06-14T09:21:16;94486.94;;;28.48;56.01
11971;BME280;6045;42.682;23.294;2023-06-14T09:23:44;94486.00;;;28.80;53.86
11971;BME280;6045;42.682;23.294;2023-06-14T09:26:14;94485.09;;;28.76;50.56
11971;BME280;6045;42.682;23.294;2023-06-14T09:28:41;94489.91;;;28.42;52.78
11971;BME280;6045;42.682;23.294;2023-06-14T09:31:10;94483.69;;;27.97;55.68
11971;BME280;6045;42.682;23.294;2023-06-14T09:33:37;94477.22;;;27.69;54.55
11971;BME280;6045;42.682;23.294;2023-06-14T09:36:04;94487.91;;;27.38;57.27
11971;BME280;6045;42.682;23.294;2023-06-14T09:38:31;94490.56;;;27.26;54.81
11971;BME280;6045;42.682;23.294;2023-06-14T09:40:58;94488.63;;;27.26;54.14
11971;BME280;6045;42.682;23.294;2023-06-14T09:43:27;94483.91;;;27.14;53.87
11971;BME280;6045;42.682;23.294;2023-06-14T09:45:54;94477.13;;;27.12;54.66
11971;BME280;6045;42.682;23.294;2023-06-14T09:48:21;94482.09;;;26.98;53.61
11971;BME280;6045;42.682;23.294;2023-06-14T09:50:50;94479.53;;;26.72;53.86
11971;BME280;6045;42.682;23.294;2023-06-14T09:53:21;94472.63;;;26.75;53.89
11971;BME280;6045;42.682;23.294;2023-06-14T09:55:49;94470.19;;;26.73;55.62
11971;BME280;6045;42.682;23.294;2023-06-14T09:58:20;94468.00;;;26.87;54.03
11971;BME280;6045;42.682;23.294;2023-06-14T10:00:50;94459.63;;;26.84;53.36
11971;BME280;6045;42.682;23.294;2023-06-14T10:03:21;94459.13;;;27.02;55.37
11971;BME280;6045;42.682;23.294;2023-06-14T10:05:51;94460.56;;;27.21;57.15
11971;BME280;6045;42.682;23.294;2023-06-14T10:08:33;94457.75;;;27.62;56.30
11971;BME280;6045;42.682;23.294;2023-06-14T10:11:03;94457.09;;;27.65;55.03
11971;BME280;6045;42.682;23.294;2023-06-14T10:13:31;94459.13;;;27.35;54.81
11971;BME280;6045;42.682;23.294;2023-06-14T10:16:09;94454.81;;;27.01;53.71
11971;BME280;6045;42.682;23.294;2023-06-14T10:18:44;94450.50;;;26.71;53.06
11971;BME280;6045;42.682;23.294;2023-06-14T10:21:20;94443.28;;;26.46;55.68
11971;BME280;6045;42.682;23.294;2023-06-14T10:23:48;94445.66;;;26.27;55.40
11971;BME280;6045;42.682;23.294;2023-06-14T10:26:20;94442.97;;;26.18;56.40
11971;BME280;6045;42.682;23.294;2023-06-14T10:28:58;94443.84;;;26.31;56.49
11971;BME280;6045;42.682;23.294;2023-06-14T10:31:42;94444.19;;;26.50;56.78
11971;BME280;6045;42.682;23.294;2023-06-14T10:34:10;94442.50;;;26.87;58.98
11971;BME280;6045;42.682;23.294;2023-06-14T10:36:38;94438.00;;;27.36;58.46
11971;BME280;6045;42.682;23.294;2023-06-14T10:39:09;94434.91;;;27.94;56.59
11971;BME280;6045;42.682;23.294;2023-06-14T10:41:38;94434.25;;;28.09;56.74
11971;BME280;6045;42.682;23.294;2023-06-14T10:44:39;94433.53;;;28.12;52.20
11971;BME280;6045;42.682;23.294;2023-06-14T10:47:10;94433.31;;;28.17;54.53
11971;BME280;6045;42.682;23.294;2023-06-14T10:49:39;94435.75;;;28.07;52.74
11971;BME280;6045;42.682;23.294;2023-06-14T10:52:09;94425.06;;;27.93;52.42
11971;BME280;6045;42.682;23.294;2023-06-14T10:55:00;94423.88;;;27.82;53.90
11971;BME280;6045;42.682;23.294;2023-06-14T10:57:27;94425.28;;;27.88;51.33
11971;BME280;6045;42.682;23.294;2023-06-14T10:59:54;94416.22;;;27.88;51.97
11971;BME280;6045;42.682;23.294;2023-06-14T11:02:46;94408.78;;;27.76;50.57
11971;BME280;6045;42.682;23.294;2023-06-14T11:05:15;94404.22;;;27.92;52.87
11971;BME280;6045;42.682;23.294;2023-06-14T11:07:50;94401.72;;;28.23;52.40
11971;BME280;6045;42.682;23.294;2023-06-14T11:10:28;94399.16;;;28.42;49.57
11971;BME280;6045;42.682;23.294;2023-06-14T11:13:00;94395.47;;;28.51;48.51
11971;BME280;6045;42.682;23.294;2023-06-14T11:15:30;94395.16;;;28.40;48.20
11971;BME280;6045;42.682;23.294;2023-06-14T11:18:00;94387.78;;;28.56;50.54
11971;BME280;6045;42.682;23.294;2023-06-14T11:20:30;94388.78;;;28.76;50.23
11971;BME280;6045;42.682;23.294;2023-06-14T11:22:58;94395.06;;;28.76;47.96
11971;BME280;6045;42.682;23.294;2023-06-14T11:25:25;94393.47;;;28.23;48.06
11971;BME280;6045;42.682;23.294;2023-06-14T11:27:53;94393.34;;;28.08;48.62
11971;BME280;6045;42.682;23.294;2023-06-14T11:30:21;94395.16;;;27.79;51.63
11971;BME280;6045;42.682;23.294;2023-06-14T11:32:49;94397.81;;;27.88;49.38
11971;BME280;6045;42.682;23.294;2023-06-14T11:35:19;94397.34;;;27.86;48.89
11971;BME280;6045;42.682;23.294;2023-06-14T11:37:48;94386.16;;;27.22;49.93
11971;BME280;6045;42.682;23.294;2023-06-14T11:40:17;94392.97;;;27.16;51.23
11971;BME280;6045;42.682;23.294;2023-06-14T11:42:44;94389.97;;;27.42;49.90
11971;BME280;6045;42.682;23.294;2023-06-14T11:45:11;94379.84;;;27.78;51.46
11971;BME280;6045;42.682;23.294;2023-06-14T11:47:39;94382.94;;;28.01;48.00
11971;BME280;6045;42.682;23.294;2023-06-14T11:50:07;94375.44;;;28.38;47.96
11971;BME280;6045;42.682;23.294;2023-06-14T11:52:36;94364.03;;;28.12;50.70
11971;BME280;6045;42.682;23.294;2023-06-14T11:55:04;94364.25;;;27.83;49.76
11971;BME280;6045;42.682;23.294;2023-06-14T11:57:34;94363.94;;;27.15;51.14
11971;BME280;6045;42.682;23.294;2023-06-14T12:00:03;94362.97;;;26.66;52.12
11971;BME280;6045;42.682;23.294;2023-06-14T12:02:33;94350.28;;;26.74;52.72
11971;BME280;6045;42.682;23.294;2023-06-14T12:05:04;94357.13;;;26.68;52.04
11971;BME280;6045;42.682;23.294;2023-06-14T12:07:33;94343.72;;;26.54;52.18
11971;BME280;6045;42.682;23.294;2023-06-14T12:10:08;94338.53;;;27.06;51.83
11971;BME280;6045;42.682;23.294;2023-06-14T12:12:37;94339.06;;;27.56;51.11
11971;BME280;6045;42.682;23.294;2023-06-14T12:15:05;94326.25;;;27.72;50.57
11971;BME280;6045;42.682;23.294;2023-06-14T12:17:33;94330.25;;;27.99;49.65
11971;BME280;6045;42.682;23.294;2023-06-14T12:20:05;94327.69;;;28.30;48.23
11971;BME280;6045;42.682;23.294;2023-06-14T12:22:36;94325.06;;;28.22;48.02
11971;BME280;6045;42.682;23.294;2023-06-14T12:25:03;94324.75;;;28.11;47.66
11971;BME280;6045;42.682;23.294;2023-06-14T12:27:32;94331.63;;;27.69;49.50
11971;BME280;6045;42.682;23.294;2023-06-14T12:30:00;94331.50;;;27.65;50.06
11971;BME280;6045;42.682;23.294;2023-06-14T12:32:27;94339.00;;;27.08;50.40
11971;BME280;6045;42.682;23.294;2023-06-14T12:34:54;94331.03;;;26.82;50.12
11971;BME280;6045;42.682;23.294;2023-06-14T12:37:21;94320.50;;;26.52;50.67
11971;BME280;6045;42.682;23.294;2023-06-14T12:39:48;94317.81;;;26.64;51.34
11971;BME280;6045;42.682;23.294;2023-06-14T12:42:16;94318.31;;;26.24;52.12
11971;BME280;6045;42.682;23.294;2023-06-14T12:44:44;94315.03;;;26.10;52.31
11971;BME280;6045;42.682;23.294;2023-06-14T12:47:11;94308.88;;;26.34;52.60
11971;BME280;6045;42.682;23.294;2023-06-14T12:49:39;94313.97;;;26.44;52.39
11971;BME280;6045;42.682;23.294;2023-06-14T12:52:08;94319.22;;;26.08;52.27
11971;BME280;6045;42.682;23.294;2023-06-14T12:54:34;94299.91;;;25.84;52.98
11971;BME280;6045;42.682;23.294;2023-06-14T12:57:01;94300.69;;;25.63;53.77
11971;BME280;6045;42.682;23.294;2023-06-14T12:59:29;94292.75;;;25.70;54.32
11971;BME280;6045;42.682;23.294;2023-06-14T13:02:10;94303.97;;;25.77;54.14
11971;BME280;6045;42.682;23.294;2023-06-14T13:04:37;94306.34;;;25.58;55.43
11971;BME280;6045;42.682;23.294;2023-06-14T13:07:04;94304.75;;;25.57;56.35
11971;BME280;6045;42.682;23.294;2023-06-14T13:09:31;94311.63;;;25.26;57.36
11971;BME280;6045;42.682;23.294;2023-06-14T13:11:58;94302.13;;;24.94;59.50
11971;BME280;6045;42.682;23.294;2023-06-14T13:14:25;94302.47;;;24.75;59.67
11971;BME280;6045;42.682;23.294;2023-06-14T13:16:52;94309.25;;;24.61;60.81
11971;BME280;6045;42.682;23.294;2023-06-14T13:19:20;94312.66;;;24.32;61.74
11971;BME280;6045;42.682;23.294;2023-06-14T13:21:48;94314.28;;;24.07;63.22
11971;BME280;6045;42.682;23.294;2023-06-14T13:24:14;94323.84;;;23.79;64.19